createdAt,value
2022-12-17T00:03:02.887Z,-3.78
2022-12-17T00:05:48.234Z,-3.61
2022-12-17T00:08:40.308Z,-3.75
2022-12-17T00:11:42.479Z,-3.79
2022-12-17T00:14:35.462Z,-3.77
2022-12-17T00:17:21.625Z,-3.79
2022-12-17T00:20:06.504Z,-3.45
2022-12-17T00:22:51.280Z,-3.71
2022-12-17T00:25:36.121Z,-3.70
2022-12-17T00:28:20.896Z,-3.91
2022-12-17T00:31:21.441Z,-3.69
2022-12-17T00:34:06.501Z,-3.79
2022-12-17T00:36:51.239Z,-3.57
2022-12-17T00:39:36.124Z,-3.72
2022-12-17T00:42:20.916Z,-3.65
2022-12-17T00:45:11.912Z,-3.70
2022-12-17T00:47:56.805Z,-3.80
2022-12-17T00:50:41.598Z,-3.74
2022-12-17T00:53:27.404Z,-3.91
2022-12-17T00:56:12.146Z,-3.98
2022-12-17T00:59:03.988Z,-3.91
2022-12-17T01:01:51.187Z,-3.86
2022-12-17T01:04:37.308Z,-3.83
2022-12-17T01:07:22.033Z,-3.81
2022-12-17T01:10:06.789Z,-3.68
2022-12-17T01:12:51.551Z,-3.86
2022-12-17T01:15:37.137Z,-3.90
2022-12-17T01:18:57.498Z,-3.81
2022-12-17T01:21:42.104Z,-3.86
2022-12-17T01:24:27.127Z,-4.10
2022-12-17T01:27:11.972Z,-3.99
2022-12-17T01:29:56.645Z,-3.91
2022-12-17T01:32:41.637Z,-4.09
2022-12-17T01:35:27.979Z,-3.76
2022-12-17T01:38:12.964Z,-3.94
2022-12-17T01:40:57.725Z,-3.66
2022-12-17T01:43:53.746Z,-3.65
2022-12-17T01:46:41.275Z,-3.79
2022-12-17T01:49:28.211Z,-3.69
2022-12-17T01:52:13.981Z,-3.96
2022-12-17T01:54:59.812Z,-4.07
2022-12-17T01:57:45.645Z,-4.12
2022-12-17T02:00:34.615Z,-4.01
2022-12-17T02:03:19.432Z,-4.33
2022-12-17T02:06:29.407Z,-3.89
2022-12-17T02:09:35.667Z,-3.96
2022-12-17T02:12:33.466Z,-4.05
2022-12-17T02:15:32.538Z,-4.10
2022-12-17T02:18:30.059Z,-4.15
2022-12-17T02:21:16.453Z,-4.06
2022-12-17T02:24:20.159Z,-4.24
2022-12-17T02:27:10.120Z,-4.18
2022-12-17T02:30:02.496Z,-4.33
2022-12-17T02:32:49.176Z,-4.50
2022-12-17T02:35:46.069Z,-4.41
2022-12-17T02:38:49.517Z,-4.11
2022-12-17T02:41:40.281Z,-4.13
2022-12-17T02:44:28.130Z,-4.47
2022-12-17T02:47:16.826Z,-4.46
2022-12-17T02:50:02.590Z,-4.50
2022-12-17T02:52:49.458Z,-4.41
2022-12-17T02:55:34.249Z,-4.49
2022-12-17T02:58:18.917Z,-4.61
2022-12-17T03:01:04.985Z,-4.29
2022-12-17T03:03:50.567Z,-4.29
2022-12-17T03:06:36.159Z,-4.59
2022-12-17T03:09:22.161Z,-4.39
2022-12-17T03:12:06.811Z,-4.43
2022-12-17T03:14:51.664Z,-4.30
2022-12-17T03:17:36.790Z,-4.67
2022-12-17T03:20:22.238Z,-4.59
2022-12-17T03:23:07.105Z,-4.66
2022-12-17T03:25:51.999Z,-4.78
2022-12-17T03:28:37.007Z,-4.31
2022-12-17T03:31:26.010Z,-4.42
2022-12-17T03:34:12.751Z,-4.52
2022-12-17T03:36:57.511Z,-5.00
2022-12-17T03:39:42.329Z,-4.87
2022-12-17T03:42:27.101Z,-5.08
2022-12-17T03:45:11.912Z,-5.08
2022-12-17T03:48:04.067Z,-5.13
2022-12-17T03:50:48.919Z,-5.39
2022-12-17T03:53:33.913Z,-5.24
2022-12-17T03:56:19.121Z,-5.30
2022-12-17T03:59:03.925Z,-4.82
2022-12-17T04:01:48.950Z,-5.01
2022-12-17T04:04:33.662Z,-5.08
2022-12-17T04:07:19.338Z,-5.19
2022-12-17T04:10:04.281Z,-5.44
2022-12-17T04:12:49.014Z,-5.18
2022-12-17T04:15:34.294Z,-4.75
2022-12-17T04:18:25.698Z,-5.09
2022-12-17T04:21:10.441Z,-5.07
2022-12-17T04:23:55.348Z,-5.15
2022-12-17T04:26:46.613Z,-5.19
2022-12-17T04:29:31.302Z,-5.21
2022-12-17T04:32:16.380Z,-5.30
2022-12-17T04:35:01.163Z,-5.24
2022-12-17T04:37:45.885Z,-5.17
2022-12-17T04:40:30.809Z,-5.21
2022-12-17T04:43:15.658Z,-5.30
2022-12-17T04:46:00.818Z,-5.43
2022-12-17T04:48:45.866Z,-5.29
2022-12-17T04:51:30.543Z,-5.09
2022-12-17T04:54:15.397Z,-5.29
2022-12-17T04:57:00.240Z,-4.99
2022-12-17T04:59:45.125Z,-4.98
2022-12-17T05:02:30.178Z,-5.24
2022-12-17T05:05:17.356Z,-5.38
2022-12-17T05:08:02.165Z,-5.27
2022-12-17T05:10:46.868Z,-5.60
2022-12-17T05:13:31.569Z,-5.43
2022-12-17T05:16:20.614Z,-5.06
2022-12-17T05:19:05.670Z,-5.18
2022-12-17T05:21:50.445Z,-5.34
2022-12-17T05:24:35.145Z,-5.58
2022-12-17T05:27:19.825Z,-6.03
2022-12-17T05:30:04.687Z,-6.29
2022-12-17T05:32:49.649Z,-6.48
2022-12-17T05:35:34.961Z,-6.49
2022-12-17T05:38:27.402Z,-6.21
2022-12-17T05:41:16.366Z,-6.00
2022-12-17T05:44:01.617Z,-6.29
2022-12-17T05:46:47.673Z,-6.17
2022-12-17T05:49:32.707Z,-6.17
2022-12-17T05:52:17.345Z,-6.32
2022-12-17T05:55:02.114Z,-6.28
2022-12-17T05:57:50.488Z,-6.45
2022-12-17T06:00:51.235Z,-6.16
2022-12-17T06:03:36.490Z,-6.46
2022-12-17T06:06:21.825Z,-6.09
2022-12-17T06:09:13.549Z,-6.27
2022-12-17T06:12:02.553Z,-6.31
2022-12-17T06:14:48.151Z,-6.32
2022-12-17T06:17:34.188Z,-6.02
2022-12-17T06:20:18.997Z,-6.11
2022-12-17T06:23:23.643Z,-6.10
2022-12-17T06:26:11.705Z,-6.07
2022-12-17T06:28:56.729Z,-6.31
2022-12-17T06:31:42.098Z,-6.03
2022-12-17T06:34:34.445Z,-6.21
2022-12-17T06:37:19.175Z,-6.41
2022-12-17T06:40:04.024Z,-6.35
2022-12-17T06:42:49.874Z,-6.73
2022-12-17T06:45:34.975Z,-6.37
2022-12-17T06:48:24.017Z,-6.22
2022-12-17T06:51:08.935Z,-6.18
2022-12-17T06:53:53.881Z,-6.30
2022-12-17T06:56:47.918Z,-6.13
2022-12-17T06:59:32.792Z,-6.38
2022-12-17T07:02:19.891Z,-6.10
2022-12-17T07:05:05.103Z,-5.98
2022-12-17T07:07:56.002Z,-6.30
2022-12-17T07:10:42.167Z,-6.23
2022-12-17T07:13:28.001Z,-6.05
2022-12-17T07:16:13.813Z,-6.02
2022-12-17T07:18:58.856Z,-6.27
2022-12-17T07:21:45.294Z,-6.11
2022-12-17T07:24:30.600Z,-6.16
2022-12-17T07:27:15.848Z,-6.39
2022-12-17T07:30:00.721Z,-6.50
2022-12-17T07:32:45.851Z,-6.27
2022-12-17T07:35:31.128Z,-6.51
2022-12-17T07:38:20.714Z,-6.17
2022-12-17T07:41:07.887Z,-6.21
2022-12-17T07:43:53.788Z,-6.17
2022-12-17T07:46:47.891Z,-6.34
2022-12-17T07:49:55.891Z,-6.31
2022-12-17T07:52:54.063Z,-6.48
2022-12-17T07:55:39.873Z,-6.47
2022-12-17T07:58:31.818Z,-6.46
2022-12-17T08:01:21.112Z,-6.71
2022-12-17T08:04:15.562Z,-6.52
2022-12-17T08:07:08.394Z,-6.54
2022-12-17T08:09:55.481Z,-6.69
2022-12-17T08:12:46.412Z,-6.49
2022-12-17T08:15:32.599Z,-6.55
2022-12-17T08:18:26.234Z,-6.43
2022-12-17T08:21:17.605Z,-6.52
2022-12-17T08:24:12.491Z,-6.58
2022-12-17T08:26:59.140Z,-6.33
2022-12-17T08:29:51.970Z,-6.15
2022-12-17T08:32:37.051Z,-6.31
2022-12-17T08:35:23.559Z,-5.88
2022-12-17T08:38:36.625Z,-5.75
2022-12-17T08:41:43.662Z,-5.55
2022-12-17T08:44:35.701Z,-5.70
2022-12-17T08:47:20.848Z,-5.73
2022-12-17T08:50:07.639Z,-5.66
2022-12-17T08:52:56.981Z,-5.45
2022-12-17T08:55:41.733Z,-5.30
2022-12-17T08:58:26.948Z,-5.43
2022-12-17T09:01:12.156Z,-5.23
2022-12-17T09:03:58.333Z,-5.50
2022-12-17T09:06:44.254Z,-5.48
2022-12-17T09:09:29.633Z,-5.19
2022-12-17T09:12:14.409Z,-5.64
2022-12-17T09:14:59.181Z,-5.45
2022-12-17T09:17:44.187Z,-6.17
2022-12-17T09:20:29.772Z,-5.69
2022-12-17T09:23:15.379Z,-5.88
2022-12-17T09:26:00.627Z,-5.90
2022-12-17T09:28:46.003Z,-5.78
2022-12-17T09:31:37.869Z,-6.04
2022-12-17T09:34:25.724Z,-5.93
2022-12-17T09:37:10.720Z,-5.49
2022-12-17T09:39:58.219Z,-5.34
2022-12-17T09:42:59.842Z,-5.34
2022-12-17T09:45:55.722Z,-5.39
2022-12-17T09:48:56.210Z,-5.30
2022-12-17T09:52:04.131Z,-5.29
2022-12-17T13:30:17.433Z,-2.11
2022-12-17T13:33:28.015Z,-2.33
2022-12-17T13:36:22.094Z,-2.17
2022-12-17T13:38:54.422Z,-2.40
2022-12-17T13:41:28.778Z,-2.62
2022-12-17T13:44:20.069Z,-2.27
2022-12-17T13:47:03.080Z,-2.30
2022-12-17T13:49:31.749Z,-2.36
2022-12-17T13:52:30.424Z,-2.33
2022-12-17T13:55:09.558Z,-2.40
2022-12-17T13:57:52.622Z,-2.76
2022-12-17T14:00:30.822Z,-2.62
2022-12-17T14:02:57.424Z,-2.54
2022-12-17T14:05:30.726Z,-2.61
2022-12-17T14:08:08.323Z,-2.45
2022-12-17T14:10:34.750Z,-2.61
2022-12-17T14:13:08.443Z,-2.87
2022-12-17T14:15:35.313Z,-2.80
2022-12-17T14:18:05.282Z,-2.79
2022-12-17T14:20:36.298Z,-3.12
2022-12-17T14:23:17.160Z,-3.11
2022-12-17T14:25:44.343Z,-3.36
2022-12-17T14:28:29.065Z,-3.24
2022-12-17T14:31:30.855Z,-3.44
2022-12-17T14:34:10.896Z,-3.59
2022-12-17T14:36:43.547Z,-3.84
2022-12-17T14:39:31.602Z,-4.15
2022-12-17T14:42:25.330Z,-4.30
2022-12-17T14:44:54.376Z,-4.21
2022-12-17T14:47:29.881Z,-4.45
2022-12-17T14:50:01.214Z,-4.80
2022-12-17T14:52:44.394Z,-4.70
2022-12-17T14:55:55.023Z,-4.79
2022-12-17T14:58:23.594Z,-5.20
2022-12-17T15:01:12.395Z,-5.34
2022-12-17T15:03:41.940Z,-5.45
2022-12-17T15:06:17.790Z,-5.78
2022-12-17T15:08:49.390Z,-5.79
2022-12-17T15:11:20.134Z,-5.99
2022-12-17T15:13:56.291Z,-6.52
2022-12-17T15:16:23.558Z,-6.33
2022-12-17T15:18:50.003Z,-6.64
2022-12-17T15:21:18.469Z,-6.64
2022-12-17T15:23:46.390Z,-6.82
2022-12-17T15:26:15.094Z,-6.94
2022-12-17T15:28:42.774Z,-7.10
2022-12-17T15:31:12.165Z,-6.98
2022-12-17T15:33:38.948Z,-7.39
2022-12-17T15:36:07.070Z,-7.31
2022-12-17T15:38:33.912Z,-7.55
2022-12-17T15:41:01.765Z,-7.46
2022-12-17T15:43:28.175Z,-7.81
2022-12-17T15:46:01.025Z,-7.91
2022-12-17T15:48:27.435Z,-7.98
2022-12-17T15:50:53.841Z,-8.11
2022-12-17T15:53:20.261Z,-8.10
2022-12-17T15:55:46.767Z,-8.08
2022-12-17T15:58:19.329Z,-8.24
2022-12-17T16:00:45.754Z,-8.15
2022-12-17T16:03:12.262Z,-8.43
2022-12-17T16:05:38.789Z,-8.11
2022-12-17T16:08:05.337Z,-8.40
2022-12-17T16:10:31.839Z,-8.33
2022-12-17T16:12:58.276Z,-8.42
2022-12-17T16:15:33.910Z,-8.63
2022-12-17T16:18:00.351Z,-8.45
2022-12-17T16:20:26.760Z,-8.42
2022-12-17T16:22:53.324Z,-8.44
2022-12-17T16:25:19.811Z,-8.56
2022-12-17T16:27:46.504Z,-8.68
2022-12-17T16:30:13.709Z,-8.63
2022-12-17T16:32:40.185Z,-8.74
2022-12-17T16:35:06.976Z,-8.74
2022-12-17T16:37:33.454Z,-9.00
2022-12-17T16:40:01.044Z,-9.03
2022-12-17T16:42:28.000Z,-9.00
2022-12-17T16:44:54.425Z,-9.13
2022-12-17T16:47:21.947Z,-9.27
2022-12-17T16:49:50.601Z,-9.28
2022-12-17T16:52:17.031Z,-9.53
2022-12-17T16:54:45.459Z,-9.58
2022-12-17T16:57:11.910Z,-9.52
2022-12-17T16:59:39.687Z,-9.89
2022-12-17T17:02:12.725Z,-9.66
2022-12-17T17:04:44.441Z,-9.70
2022-12-17T17:07:10.898Z,-9.96
2022-12-17T17:09:38.327Z,-9.64
2022-12-17T17:12:05.051Z,-9.91
2022-12-17T17:14:31.442Z,-9.84
2022-12-17T17:17:02.063Z,-9.88
2022-12-17T17:19:36.567Z,-10.00
2022-12-17T17:22:03.058Z,-10.02
2022-12-17T17:24:29.505Z,-10.02
2022-12-17T17:26:56.034Z,-9.76
2022-12-17T17:29:22.944Z,-10.25
2022-12-17T17:34:39.687Z,-10.19
2022-12-17T17:37:06.418Z,-10.46
2022-12-17T17:39:34.112Z,-10.63
2022-12-17T17:42:05.246Z,-10.54
2022-12-17T17:44:31.995Z,-10.55
2022-12-17T17:46:59.818Z,-10.65
2022-12-17T17:49:27.535Z,-10.81
2022-12-17T17:52:10.971Z,-10.72
2022-12-17T17:54:39.651Z,-10.83
2022-12-17T17:57:16.219Z,-10.82
2022-12-17T17:59:42.613Z,-10.72
